sensor_id;sensor_type;location;lat;lon;timestamp;pressure;altitude;pressure_sealevel;temperature;humidity
14067;BME280;7108;42.684;23.350;2023-07-22T00:01:31;95218.50;;;26.46;100.00
14067;BME280;7108;42.684;23.350;2023-07-22T00:03:58;95224.50;;;26.44;97.63
14067;BME280;7108;42.684;23.350;2023-07-22T00:06:23;95233.06;;;26.46;97.43
14067;BME280;7108;42.684;23.350;2023-07-22T00:08:50;95237.84;;;26.54;97.70
14067;BME280;7108;42.684;23.350;2023-07-22T00:11:15;95242.75;;;26.50;97.36
14067;BME280;7108;42.684;23.350;2023-07-22T00:13:44;95237.53;;;26.44;98.44
14067;BME280;7108;42.684;23.350;2023-07-22T00:16:09;95243.66;;;26.39;100.00
14067;BME280;7108;42.684;23.350;2023-07-22T00:18:37;95235.94;;;26.34;100.00
14067;BME280;7108;42.684;23.350;2023-07-22T00:21:03;95229.66;;;26.33;100.00
14067;BME280;7108;42.684;23.350;2023-07-22T00:23:29;95238.28;;;26.35;100.00
14067;BME280;7108;42.684;23.350;2023-07-22T00:25:57;95206.63;;;26.18;100.00
14067;BME280;7108;42.684;23.350;2023-07-22T00:28:22;95237.63;;;26.31;100.00
14067;BME280;7108;42.684;23.350;2023-07-22T00:30:48;95221.47;;;26.12;100.00
14067;BME280;7108;42.684;23.350;2023-07-22T00:33:14;95241.25;;;26.10;100.00
14067;BME280;7108;42.684;23.350;2023-07-22T00:35:40;95243.88;;;26.14;100.00
14067;BME280;7108;42.684;23.350;2023-07-22T00:38:08;95223.25;;;25.88;100.00
14067;BME280;7108;42.684;23.350;2023-07-22T00:40:34;95233.38;;;25.91;100.00
14067;BME280;7108;42.684;23.350;2023-07-22T00:43:00;95243.78;;;25.87;100.00
14067;BME280;7108;42.684;23.350;2023-07-22T00:45:26;95226.50;;;25.65;100.00
14067;BME280;7108;42.684;23.350;2023-07-22T00:47:51;95239.78;;;25.79;100.00
14067;BME280;7108;42.684;23.350;2023-07-22T00:50:17;95248.81;;;25.80;100.00
14067;BME280;7108;42.684;23.350;2023-07-22T00:52:48;95243.91;;;25.75;100.00
14067;BME280;7108;42.684;23.350;2023-07-22T00:55:16;95262.31;;;25.78;100.00
14067;BME280;7108;42.684;23.350;2023-07-22T00:57:42;95262.16;;;25.72;100.00
14067;BME280;7108;42.684;23.350;2023-07-22T01:00:08;95262.25;;;25.69;100.00
14067;BME280;7108;42.684;23.350;2023-07-22T01:02:37;95255.78;;;25.63;100.00
14067;BME280;7108;42.684;23.350;2023-07-22T01:05:03;95241.94;;;25.54;100.00
14067;BME280;7108;42.684;23.350;2023-07-22T01:07:29;95243.78;;;25.57;100.00
14067;BME280;7108;42.684;23.350;2023-07-22T01:09:57;95245.16;;;25.52;100.00
14067;BME280;7108;42.684;23.350;2023-07-22T01:12:26;95231.00;;;25.41;100.00
14067;BME280;7108;42.684;23.350;2023-07-22T01:14:51;95218.38;;;25.31;100.00
14067;BME280;7108;42.684;23.350;2023-07-22T01:17:18;95234.38;;;25.45;100.00
14067;BME280;7108;42.684;23.350;2023-07-22T01:19:44;95243.56;;;25.42;100.00
14067;BME280;7108;42.684;23.350;2023-07-22T01:22:10;95221.72;;;25.26;100.00
14067;BME280;7108;42.684;23.350;2023-07-22T01:24:38;95237.25;;;25.42;100.00
14067;BME280;7108;42.684;23.350;2023-07-22T01:27:05;95235.53;;;25.35;100.00
14067;BME280;7108;42.684;23.350;2023-07-22T01:29:33;95229.53;;;25.28;100.00
14067;BME280;7108;42.684;23.350;2023-07-22T01:31:59;95221.72;;;25.26;100.00
14067;BME280;7108;42.684;23.350;2023-07-22T01:34:24;95217.06;;;25.23;100.00
14067;BME280;7108;42.684;23.350;2023-07-22T01:36:50;95218.00;;;25.20;100.00
14067;BME280;7108;42.684;23.350;2023-07-22T01:39:16;95229.03;;;25.20;100.00
14067;BME280;7108;42.684;23.350;2023-07-22T01:41:44;95232.53;;;25.21;100.00
14067;BME280;7108;42.684;23.350;2023-07-22T01:44:10;95223.97;;;25.19;100.00
14067;BME280;7108;42.684;23.350;2023-07-22T01:46:36;95222.44;;;25.18;100.00
14067;BME280;7108;42.684;23.350;2023-07-22T01:49:05;95218.53;;;25.07;100.00
14067;BME280;7108;42.684;23.350;2023-07-22T01:51:31;95211.00;;;25.07;100.00
14067;BME280;7108;42.684;23.350;2023-07-22T01:53:57;95199.31;;;25.03;100.00
14067;BME280;7108;42.684;23.350;2023-07-22T01:56:23;95212.09;;;25.10;100.00
14067;BME280;7108;42.684;23.350;2023-07-22T01:58:48;95221.59;;;25.09;100.00
14067;BME280;7108;42.684;23.350;2023-07-22T02:01:14;95214.44;;;24.99;100.00
14067;BME280;7108;42.684;23.350;2023-07-22T02:03:44;95204.31;;;24.96;100.00
14067;BME280;7108;42.684;23.350;2023-07-22T02:06:10;95213.22;;;25.00;100.00
14067;BME280;7108;42.684;23.350;2023-07-22T02:08:36;95194.47;;;24.86;100.00
14067;BME280;7108;42.684;23.350;2023-07-22T02:11:03;95200.56;;;24.81;100.00
14067;BME280;7108;42.684;23.350;2023-07-22T02:13:30;95208.09;;;24.89;100.00
14067;BME280;7108;42.684;23.350;2023-07-22T02:15:55;95186.25;;;24.73;100.00
14067;BME280;7108;42.684;23.350;2023-07-22T02:18:21;95206.38;;;24.83;100.00
14067;BME280;7108;42.684;23.350;2023-07-22T02:20:46;95212.84;;;24.89;100.00
14067;BME280;7108;42.684;23.350;2023-07-22T02:23:12;95215.28;;;24.87;100.00
14067;BME280;7108;42.684;23.350;2023-07-22T02:25:37;95222.34;;;24.88;100.00
14067;BME280;7108;42.684;23.350;2023-07-22T02:28:03;95221.69;;;24.84;100.00
14067;BME280;7108;42.684;23.350;2023-07-22T02:30:29;95209.41;;;24.76;100.00
14067;BME280;7108;42.684;23.350;2023-07-22T02:32:54;95224.56;;;24.80;100.00
14067;BME280;7108;42.684;23.350;2023-07-22T02:35:20;95217.66;;;24.76;100.00
14067;BME280;7108;42.684;23.350;2023-07-22T02:37:45;95223.41;;;24.69;100.00
14067;BME280;7108;42.684;23.350;2023-07-22T02:40:10;95237.03;;;24.85;100.00
14067;BME280;7108;42.684;23.350;2023-07-22T02:42:41;95223.03;;;24.79;100.00
14067;BME280;7108;42.684;23.350;2023-07-22T02:45:07;95224.84;;;24.73;100.00
14067;BME280;7108;42.684;23.350;2023-07-22T02:47:33;95223.59;;;24.74;100.00
14067;BME280;7108;42.684;23.350;2023-07-22T02:49:59;95228.94;;;24.69;100.00
14067;BME280;7108;42.684;23.350;2023-07-22T02:52:25;95220.59;;;24.60;100.00
14067;BME280;7108;42.684;23.350;2023-07-22T02:55:23;95232.94;;;24.55;100.00
14067;BME280;7108;42.684;23.350;2023-07-22T02:57:49;95225.59;;;24.52;100.00
14067;BME280;7108;42.684;23.350;2023-07-22T03:00:16;95234.63;;;24.53;100.00
14067;BME280;7108;42.684;23.350;2023-07-22T03:02:51;95234.75;;;24.49;100.00
14067;BME280;7108;42.684;23.350;2023-07-22T03:05:18;95228.78;;;24.51;100.00
14067;BME280;7108;42.684;23.350;2023-07-22T03:07:43;95232.31;;;24.51;100.00
14067;BME280;7108;42.684;23.350;2023-07-22T03:10:09;95225.81;;;24.46;100.00
14067;BME280;7108;42.684;23.350;2023-07-22T03:12:35;95239.03;;;24.50;100.00
14067;BME280;7108;42.684;23.350;2023-07-22T03:15:02;95242.66;;;24.47;100.00
14067;BME280;7108;42.684;23.350;2023-07-22T03:17:29;95245.75;;;24.49;100.00
14067;BME280;7108;42.684;23.350;2023-07-22T03:19:55;95215.09;;;24.14;100.00
14067;BME280;7108;42.684;23.350;2023-07-22T03:22:20;95240.28;;;24.25;100.00
14067;BME280;7108;42.684;23.350;2023-07-22T03:24:46;95240.19;;;24.28;100.00
14067;BME280;7108;42.684;23.350;2023-07-22T03:27:12;95238.75;;;24.24;100.00
14067;BME280;7108;42.684;23.350;2023-07-22T03:29:38;95240.47;;;24.30;100.00
14067;BME280;7108;42.684;23.350;2023-07-22T03:32:05;95243.56;;;24.32;100.00
14067;BME280;7108;42.684;23.350;2023-07-22T03:34:31;95245.13;;;24.33;100.00
14067;BME280;7108;42.684;23.350;2023-07-22T03:36:57;95235.22;;;24.23;100.00
14067;BME280;7108;42.684;23.350;2023-07-22T03:39:23;95253.03;;;24.31;100.00
14067;BME280;7108;42.684;23.350;2023-07-22T03:41:49;95258.00;;;24.36;100.00
14067;BME280;7108;42.684;23.350;2023-07-22T03:44:14;95272.03;;;24.42;100.00
14067;BME280;7108;42.684;23.350;2023-07-22T03:46:40;95272.66;;;24.46;100.00
14067;BME280;7108;42.684;23.350;2023-07-22T03:49:05;95269.25;;;24.42;100.00
14067;BME280;7108;42.684;23.350;2023-07-22T03:51:31;95269.34;;;24.38;100.00
14067;BME280;7108;42.684;23.350;2023-07-22T03:53:57;95258.91;;;24.33;100.00
14067;BME280;7108;42.684;23.350;2023-07-22T03:56:22;95280.03;;;24.48;100.00
14067;BME280;7108;42.684;23.350;2023-07-22T03:58:49;95272.66;;;24.46;100.00
14067;BME280;7108;42.684;23.350;2023-07-22T04:01:17;95278.94;;;24.46;100.00
14067;BME280;7108;42.684;23.350;2023-07-22T04:03:43;95281.00;;;24.54;100.00
14067;BME280;7108;42.684;23.350;2023-07-22T04:06:08;95295.00;;;24.60;100.00
14067;BME280;7108;42.684;23.350;2023-07-22T04:08:34;95274.09;;;24.50;100.00
14067;BME280;7108;42.684;23.350;2023-07-22T04:10:59;95273.75;;;24.48;100.00
14067;BME280;7108;42.684;23.350;2023-07-22T04:13:26;95292.56;;;24.62;100.00
14067;BME280;7108;42.684;23.350;2023-07-22T04:15:51;95279.78;;;24.55;100.00
14067;BME280;7108;42.684;23.350;2023-07-22T04:18:18;95270.63;;;24.58;100.00
14067;BME280;7108;42.684;23.350;2023-07-22T04:20:44;95288.03;;;24.68;100.00
14067;BME280;7108;42.684;23.350;2023-07-22T04:23:09;95279.41;;;24.66;100.00
14067;BME280;7108;42.684;23.350;2023-07-22T04:25:39;95281.50;;;24.74;100.00
14067;BME280;7108;42.684;23.350;2023-07-22T04:28:04;95279.75;;;24.68;100.00
14067;BME280;7108;42.684;23.350;2023-07-22T04:30:30;95269.19;;;24.66;100.00
14067;BME280;7108;42.684;23.350;2023-07-22T04:32:55;95282.19;;;24.66;100.00
14067;BME280;7108;42.684;23.350;2023-07-22T04:35:21;95300.03;;;24.74;100.00
14067;BME280;7108;42.684;23.350;2023-07-22T04:37:47;95302.75;;;24.86;100.00
14067;BME280;7108;42.684;23.350;2023-07-22T04:40:12;95295.38;;;24.83;100.00
14067;BME280;7108;42.684;23.350;2023-07-22T04:42:42;95285.69;;;24.79;100.00
14067;BME280;7108;42.684;23.350;2023-07-22T04:45:08;95302.28;;;24.88;100.00
14067;BME280;7108;42.684;23.350;2023-07-22T04:47:40;95310.97;;;24.99;100.00
14067;BME280;7108;42.684;23.350;2023-07-22T04:50:07;95287.63;;;24.91;100.00
14067;BME280;7108;42.684;23.350;2023-07-22T04:52:35;95290.78;;;25.02;100.00
14067;BME280;7108;42.684;23.350;2023-07-22T04:55:03;95287.34;;;24.98;100.00
14067;BME280;7108;42.684;23.350;2023-07-22T04:57:35;95300.91;;;25.05;100.00
14067;BME280;7108;42.684;23.350;2023-07-22T05:00:00;95310.06;;;25.14;100.00
14067;BME280;7108;42.684;23.350;2023-07-22T05:02:29;95304.66;;;25.11;100.00
14067;BME280;7108;42.684;23.350;2023-07-22T05:04:55;95321.72;;;25.18;100.00
14067;BME280;7108;42.684;23.350;2023-07-22T05:07:24;95322.59;;;25.15;100.00
14067;BME280;7108;42.684;23.350;2023-07-22T05:09:49;95317.81;;;25.07;100.00
14067;BME280;7108;42.684;23.350;2023-07-22T05:12:16;95316.44;;;25.11;100.00
14067;BME280;7108;42.684;23.350;2023-07-22T05:14:41;95306.97;;;25.12;100.00
14067;BME280;7108;42.684;23.350;2023-07-22T05:17:07;95322.25;;;25.25;100.00
14067;BME280;7108;42.684;23.350;2023-07-22T05:19:32;95315.63;;;25.23;100.00
14067;BME280;7108;42.684;23.350;2023-07-22T05:21:58;95308.63;;;25.31;100.00
14067;BME280;7108;42.684;23.350;2023-07-22T05:24:23;95302.34;;;25.30;100.00
14067;BME280;7108;42.684;23.350;2023-07-22T05:26:49;95323.13;;;25.44;100.00
14067;BME280;7108;42.684;23.350;2023-07-22T05:29:14;95313.19;;;25.46;100.00
14067;BME280;7108;42.684;23.350;2023-07-22T05:31:40;95319.34;;;25.50;100.00
14067;BME280;7108;42.684;23.350;2023-07-22T05:34:05;95309.84;;;25.51;100.00
14067;BME280;7108;42.684;23.350;2023-07-22T05:36:31;95316.13;;;25.52;100.00
14067;BME280;7108;42.684;23.350;2023-07-22T05:38:57;95327.38;;;25.57;100.00
14067;BME280;7108;42.684;23.350;2023-07-22T05:41:22;95337.81;;;25.62;100.00
14067;BME280;7108;42.684;23.350;2023-07-22T05:43:48;95333.19;;;25.59;100.00
14067;BME280;7108;42.684;23.350;2023-07-22T05:46:14;95324.66;;;25.66;100.00
14067;BME280;7108;42.684;23.350;2023-07-22T05:48:39;95324.47;;;25.61;100.00
14067;BME280;7108;42.684;23.350;2023-07-22T05:51:04;95313.94;;;25.47;100.00
14067;BME280;7108;42.684;23.350;2023-07-22T05:53:32;95325.56;;;25.63;100.00
14067;BME280;7108;42.684;23.350;2023-07-22T05:55:57;95321.75;;;25.70;100.00
14067;BME280;7108;42.684;23.350;2023-07-22T05:58:23;95316.94;;;25.61;100.00
14067;BME280;7108;42.684;23.350;2023-07-22T06:00:48;95326.16;;;25.58;100.00
14067;BME280;7108;42.684;23.350;2023-07-22T06:03:17;95309.75;;;25.64;100.00
14067;BME280;7108;42.684;23.350;2023-07-22T06:05:43;95339.09;;;25.70;100.00
14067;BME280;7108;42.684;23.350;2023-07-22T06:08:08;95339.66;;;25.65;100.00
14067;BME280;7108;42.684;23.350;2023-07-22T06:10:34;95344.97;;;25.72;100.00
14067;BME280;7108;42.684;23.350;2023-07-22T06:13:04;95332.63;;;25.64;100.00
14067;BME280;7108;42.684;23.350;2023-07-22T06:15:30;95347.50;;;25.88;100.00
14067;BME280;7108;42.684;23.350;2023-07-22T06:17:55;95348.25;;;25.88;100.00
14067;BME280;7108;42.684;23.350;2023-07-22T06:20:21;95348.94;;;25.92;100.00
14067;BME280;7108;42.684;23.350;2023-07-22T06:22:46;95346.59;;;25.91;100.00
14067;BME280;7108;42.684;23.350;2023-07-22T06:25:12;95363.13;;;26.12;100.00
14067;BME280;7108;42.684;23.350;2023-07-22T06:27:37;95364.81;;;26.10;100.00
14067;BME280;7108;42.684;23.350;2023-07-22T06:30:03;95368.66;;;26.12;100.00
14067;BME280;7108;42.684;23.350;2023-07-22T06:32:29;95357.75;;;26.09;100.00
14067;BME280;7108;42.684;23.350;2023-07-22T06:34:56;95366.66;;;26.13;100.00
14067;BME280;7108;42.684;23.350;2023-07-22T06:37:23;95372.09;;;26.25;100.00
14067;BME280;7108;42.684;23.350;2023-07-22T06:39:48;95374.22;;;26.21;100.00
14067;BME280;7108;42.684;23.350;2023-07-22T06:42:13;95370.13;;;26.35;100.00
14067;BME280;7108;42.684;23.350;2023-07-22T06:44:39;95366.81;;;26.40;100.00
14067;BME280;7108;42.684;23.350;2023-07-22T06:47:05;95375.25;;;26.45;100.00
14067;BME280;7108;42.684;23.350;2023-07-22T06:49:30;95360.91;;;26.29;100.00
14067;BME280;7108;42.684;23.350;2023-07-22T06:51:55;95357.53;;;26.34;100.00
14067;BME280;7108;42.684;23.350;2023-07-22T06:54:21;95358.66;;;26.36;100.00
14067;BME280;7108;42.684;23.350;2023-07-22T06:56:47;95362.09;;;26.49;100.00
14067;BME280;7108;42.684;23.350;2023-07-22T06:59:12;95356.22;;;26.47;100.00
14067;BME280;7108;42.684;23.350;2023-07-22T07:01:37;95339.03;;;26.43;100.00
14067;BME280;7108;42.684;23.350;2023-07-22T07:04:06;95351.19;;;26.54;100.00
14067;BME280;7108;42.684;23.350;2023-07-22T07:06:32;95360.88;;;26.59;100.00
14067;BME280;7108;42.684;23.350;2023-07-22T07:09:00;95352.06;;;26.43;100.00
14067;BME280;7108;42.684;23.350;2023-07-22T07:11:26;95349.63;;;26.45;100.00
14067;BME280;7108;42.684;23.350;2023-07-22T07:13:53;95349.81;;;26.59;100.00
14067;BME280;7108;42.684;23.350;2023-07-22T07:16:26;95345.06;;;26.68;100.00
14067;BME280;7108;42.684;23.350;2023-07-22T07:18:52;95339.41;;;26.72;100.00
14067;BME280;7108;42.684;23.350;2023-07-22T07:21:19;95345.09;;;26.86;100.00
14067;BME280;7108;42.684;23.350;2023-07-22T07:23:44;95342.66;;;26.88;100.00
14067;BME280;7108;42.684;23.350;2023-07-22T07:26:11;95343.13;;;26.96;100.00
14067;BME280;7108;42.684;23.350;2023-07-22T07:28:36;95329.44;;;26.92;100.00
14067;BME280;7108;42.684;23.350;2023-07-22T07:31:02;95319.47;;;26.95;100.00
14067;BME280;7108;42.684;23.350;2023-07-22T07:33:28;95338.09;;;27.12;100.00
14067;BME280;7108;42.684;23.350;2023-07-22T07:35:54;95339.63;;;27.13;100.00
14067;BME280;7108;42.684;23.350;2023-07-22T07:38:19;95335.63;;;27.23;100.00
14067;BME280;7108;42.684;23.350;2023-07-22T07:40:45;95319.50;;;27.21;100.00
14067;BME280;7108;42.684;23.350;2023-07-22T07:43:10;95323.19;;;27.27;100.00
14067;BME280;7108;42.684;23.350;2023-07-22T07:45:38;95314.44;;;27.29;100.00
14067;BME280;7108;42.684;23.350;2023-07-22T07:48:05;95302.25;;;27.35;100.00
14067;BME280;7108;42.684;23.350;2023-07-22T07:50:30;95328.06;;;27.50;100.00
14067;BME280;7108;42.684;23.350;2023-07-22T07:52:56;95325.78;;;27.58;100.00
14067;BME280;7108;42.684;23.350;2023-07-22T07:55:21;95295.63;;;27.51;100.00
14067;BME280;7108;42.684;23.350;2023-07-22T07:57:47;95316.38;;;27.64;100.00
14067;BME280;7108;42.684;23.350;2023-07-22T08:00:15;95316.06;;;27.71;100.00
14067;BME280;7108;42.684;23.350;2023-07-22T08:02:40;95309.78;;;27.71;100.00
14067;BME280;7108;42.684;23.350;2023-07-22T08:05:09;95292.25;;;27.65;100.00
14067;BME280;7108;42.684;23.350;2023-07-22T08:07:34;95321.25;;;27.87;100.00
14067;BME280;7108;42.684;23.350;2023-07-22T08:10:03;95326.94;;;27.92;100.00
14067;BME280;7108;42.684;23.350;2023-07-22T08:12:30;95315.84;;;27.92;100.00
14067;BME280;7108;42.684;23.350;2023-07-22T08:14:55;95313.81;;;28.02;100.00
14067;BME280;7108;42.684;23.350;2023-07-22T08:17:21;95313.03;;;28.10;100.00
14067;BME280;7108;42.684;23.350;2023-07-22T08:19:47;95320.56;;;28.19;100.00
14067;BME280;7108;42.684;23.350;2023-07-22T08:22:12;95313.91;;;28.25;100.00
14067;BME280;7108;42.684;23.350;2023-07-22T08:24:37;95301.16;;;28.19;100.00
14067;BME280;7108;42.684;23.350;2023-07-22T08:27:06;95303.78;;;28.22;100.00
14067;BME280;7108;42.684;23.350;2023-07-22T08:29:31;95297.00;;;28.23;100.00
14067;BME280;7108;42.684;23.350;2023-07-22T08:31:58;95306.00;;;28.42;100.00
14067;BME280;7108;42.684;23.350;2023-07-22T08:34:23;95300.72;;;28.44;100.00
14067;BME280;7108;42.684;23.350;2023-07-22T08:36:49;95293.63;;;28.52;100.00
14067;BME280;7108;42.684;23.350;2023-07-22T08:39:18;95294.63;;;28.63;100.00
14067;BME280;7108;42.684;23.350;2023-07-22T08:41:48;95285.06;;;28.64;100.00
14067;BME280;7108;42.684;23.350;2023-07-22T08:44:18;95282.88;;;28.68;100.00
14067;BME280;7108;42.684;23.350;2023-07-22T08:46:44;95281.91;;;28.71;100.00
14067;BME280;7108;42.684;23.350;2023-07-22T08:49:10;95279.13;;;28.80;100.00
14067;BME280;7108;42.684;23.350;2023-07-22T08:51:36;95254.84;;;28.89;100.00
14067;BME280;7108;42.684;23.350;2023-07-22T08:54:02;95270.00;;;29.03;100.00
14067;BME280;7108;42.684;23.350;2023-07-22T08:56:28;95254.41;;;29.05;100.00
14067;BME280;7108;42.684;23.350;2023-07-22T08:58:55;95250.50;;;29.12;100.00
14067;BME280;7108;42.684;23.350;2023-07-22T09:01:21;95261.53;;;29.20;100.00
14067;BME280;7108;42.684;23.350;2023-07-22T09:03:48;95260.88;;;29.25;100.00
14067;BME280;7108;42.684;23.350;2023-07-22T09:06:16;95244.97;;;29.26;99.31
14067;BME280;7108;42.684;23.350;2023-07-22T09:08:43;95253.41;;;29.31;98.57
14067;BME280;7108;42.684;23.350;2023-07-22T09:11:09;95257.75;;;29.47;100.00
14067;BME280;7108;42.684;23.350;2023-07-22T09:13:35;95258.44;;;29.56;96.28
14067;BME280;7108;42.684;23.350;2023-07-22T09:16:01;95253.16;;;29.58;95.48
14067;BME280;7108;42.684;23.350;2023-07-22T09:18:27;95251.03;;;29.53;93.72
14067;BME280;7108;42.684;23.350;2023-07-22T09:20:53;95249.72;;;29.49;93.00
14067;BME280;7108;42.684;23.350;2023-07-22T09:23:34;95246.34;;;29.59;93.30
14067;BME280;7108;42.684;23.350;2023-07-22T09:26:14;95240.59;;;29.63;96.03
14067;BME280;7108;42.684;23.350;2023-07-22T09:31:14;95234.06;;;29.80;97.02
14067;BME280;7108;42.684;23.350;2023-07-22T09:33:39;95243.59;;;29.88;95.76
14067;BME280;7108;42.684;23.350;2023-07-22T09:36:10;95244.44;;;29.94;93.65
14067;BME280;7108;42.684;23.350;2023-07-22T09:38:36;95234.56;;;29.93;91.24
14067;BME280;7108;42.684;23.350;2023-07-22T09:41:01;95220.56;;;30.02;91.61
14067;BME280;7108;42.684;23.350;2023-07-22T09:43:29;95227.34;;;30.15;91.54
14067;BME280;7108;42.684;23.350;2023-07-22T09:45:55;95219.00;;;30.15;86.83
14067;BME280;7108;42.684;23.350;2023-07-22T09:48:21;95216.00;;;30.19;89.58
14067;BME280;7108;42.684;23.350;2023-07-22T09:50:56;95226.31;;;30.33;85.47
14067;BME280;7108;42.684;23.350;2023-07-22T09:53:21;95219.56;;;30.39;84.63
14067;BME280;7108;42.684;23.350;2023-07-22T09:55:47;95212.00;;;30.40;84.14
14067;BME280;7108;42.684;23.350;2023-07-22T09:58:13;95203.06;;;30.50;81.87
14067;BME280;7108;42.684;23.350;2023-07-22T10:00:42;95198.41;;;30.61;79.90
14067;BME280;7108;42.684;23.350;2023-07-22T10:03:12;95191.38;;;30.66;78.12
14067;BME280;7108;42.684;23.350;2023-07-22T10:05:41;95206.81;;;30.87;74.44
14067;BME280;7108;42.684;23.350;2023-07-22T10:08:08;95201.69;;;31.00;74.37
14067;BME280;7108;42.684;23.350;2023-07-22T10:10:37;95213.53;;;31.20;73.91
14067;BME280;7108;42.684;23.350;2023-07-22T10:13:03;95204.09;;;31.37;78.91
14067;BME280;7108;42.684;23.350;2023-07-22T10:15:30;95181.53;;;31.35;66.92
14067;BME280;7108;42.684;23.350;2023-07-22T10:17:56;95193.13;;;31.54;66.61
14067;BME280;7108;42.684;23.350;2023-07-22T10:20:23;95193.09;;;31.79;65.78
14067;BME280;7108;42.684;23.350;2023-07-22T10:22:49;95200.06;;;31.94;61.62
14067;BME280;7108;42.684;23.350;2023-07-22T10:25:17;95178.38;;;32.04;64.16
14067;BME280;7108;42.684;23.350;2023-07-22T10:27:43;95198.06;;;32.31;61.26
14067;BME280;7108;42.684;23.350;2023-07-22T10:30:10;95190.78;;;32.50;61.61
14067;BME280;7108;42.684;23.350;2023-07-22T10:32:56;95190.13;;;32.66;57.71
14067;BME280;7108;42.684;23.350;2023-07-22T10:35:22;95192.25;;;32.87;61.74
14067;BME280;7108;42.684;23.350;2023-07-22T10:37:54;95169.16;;;32.87;52.27
14067;BME280;7108;42.684;23.350;2023-07-22T10:40:28;95184.91;;;33.01;50.81
14067;BME280;7108;42.684;23.350;2023-07-22T10:42:54;95181.44;;;33.17;53.04
14067;BME280;7108;42.684;23.350;2023-07-22T10:45:32;95167.53;;;33.33;48.20
14067;BME280;7108;42.684;23.350;2023-07-22T10:48:11;95174.91;;;33.41;46.65
14067;BME280;7108;42.684;23.350;2023-07-22T10:53:09;95167.81;;;33.57;44.71
14067;BME280;7108;42.684;23.350;2023-07-22T10:56:08;95181.28;;;33.80;44.19
14067;BME280;7108;42.684;23.350;2023-07-22T11:12:14;95169.06;;;34.21;41.91
14067;BME280;7108;42.684;23.350;2023-07-22T11:14:48;95157.06;;;34.32;43.23
14067;BME280;7108;42.684;23.350;2023-07-22T11:17:14;95160.09;;;34.39;42.69
14067;BME280;7108;42.684;23.350;2023-07-22T11:19:40;95158.09;;;34.40;41.21
14067;BME280;7108;42.684;23.350;2023-07-22T11:22:06;95143.09;;;34.37;42.29
14067;BME280;7108;42.684;23.350;2023-07-22T11:24:35;95152.97;;;34.44;41.71
14067;BME280;7108;42.684;23.350;2023-07-22T11:27:03;95139.25;;;34.46;40.66
14067;BME280;7108;42.684;23.350;2023-07-22T11:29:29;95143.00;;;34.59;42.17
14067;BME280;7108;42.684;23.350;2023-07-22T11:31:54;95142.97;;;34.70;41.80
14067;BME280;7108;42.684;23.350;2023-07-22T11:34:22;95136.09;;;34.71;39.97
14067;BME280;7108;42.684;23.350;2023-07-22T11:36:49;95131.72;;;34.86;40.39
14067;BME280;7108;42.684;23.350;2023-07-22T11:39:18;95126.38;;;34.83;39.42
14067;BME280;7108;42.684;23.350;2023-07-22T11:41:44;95125.84;;;34.90;39.86
14067;BME280;7108;42.684;23.350;2023-07-22T11:44:15;95130.88;;;34.97;39.91
14067;BME280;7108;42.684;23.350;2023-07-22T11:46:56;95127.88;;;34.89;38.40
14067;BME280;7108;42.684;23.350;2023-07-22T11:49:29;95116.19;;;34.80;39.19
14067;BME280;7108;42.684;23.350;2023-07-22T11:52:04;95107.09;;;34.74;39.38
14067;BME280;7108;42.684;23.350;2023-07-22T11:54:31;95111.31;;;34.86;39.03
14067;BME280;7108;42.684;23.350;2023-07-22T11:56:57;95118.44;;;34.92;38.75
14067;BME280;7108;42.684;23.350;2023-07-22T11:59:34;95112.28;;;34.99;39.62
14067;BME280;7108;42.684;23.350;2023-07-22T12:02:00;95105.72;;;34.91;39.09
14067;BME280;7108;42.684;23.350;2023-07-22T12:04:27;95094.50;;;34.91;38.67
14067;BME280;7108;42.684;23.350;2023-07-22T12:06:52;95106.47;;;34.92;39.59
14067;BME280;7108;42.684;23.350;2023-07-22T12:09:18;95118.44;;;34.98;39.87
14067;BME280;7108;42.684;23.350;2023-07-22T12:11:43;95099.09;;;34.89;39.24
14067;BME280;7108;42.684;23.350;2023-07-22T12:14:13;95113.84;;;34.89;39.48
14067;BME280;7108;42.684;23.350;2023-07-22T12:16:41;95105.00;;;34.80;40.19
14067;BME280;7108;42.684;23.350;2023-07-22T12:19:11;95108.03;;;34.82;40.46
14067;BME280;7108;42.684;23.350;2023-07-22T12:21:36;95095.56;;;34.83;40.08
14067;BME280;7108;42.684;23.350;2023-07-22T12:24:02;95086.94;;;34.75;39.82
14067;BME280;7108;42.684;23.350;2023-07-22T12:26:30;95091.56;;;34.67;39.67
14067;BME280;7108;42.684;23.350;2023-07-22T12:28:56;95081.66;;;34.67;40.08
14067;BME280;7108;42.684;23.350;2023-07-22T12:31:21;95098.38;;;34.83;40.13
14067;BME280;7108;42.684;23.350;2023-07-22T12:33:47;95093.50;;;34.89;39.93
14067;BME280;7108;42.684;23.350;2023-07-22T12:36:12;95070.53;;;34.56;39.95
14067;BME280;7108;42.684;23.350;2023-07-22T12:38:38;95088.13;;;34.40;40.60
14067;BME280;7108;42.684;23.350;2023-07-22T12:41:03;95092.97;;;34.28;41.69
14067;BME280;7108;42.684;23.350;2023-07-22T12:43:29;95086.16;;;34.18;40.99
14067;BME280;7108;42.684;23.350;2023-07-22T12:45:56;95085.88;;;34.27;41.02
14067;BME280;7108;42.684;23.350;2023-07-22T12:48:21;95063.75;;;34.24;41.72
14067;BME280;7108;42.684;23.350;2023-07-22T12:50:55;95079.69;;;34.45;41.32
14067;BME280;7108;42.684;23.350;2023-07-22T12:53:21;95064.22;;;34.33;40.81
14067;BME280;7108;42.684;23.350;2023-07-22T12:55:46;95069.28;;;34.40;40.79
14067;BME280;7108;42.684;23.350;2023-07-22T12:58:12;95071.56;;;34.42;41.75
14067;BME280;7108;42.684;23.350;2023-07-22T13:00:37;95081.47;;;34.54;41.87
14067;BME280;7108;42.684;23.350;2023-07-22T13:03:03;95072.28;;;34.59;40.52
14067;BME280;7108;42.684;23.350;2023-07-22T13:05:29;95060.81;;;34.57;39.79
14067;BME280;7108;42.684;23.350;2023-07-22T13:07:54;95065.19;;;34.52;39.64
14067;BME280;7108;42.684;23.350;2023-07-22T13:10:20;95065.16;;;34.47;39.24